Karlsruhe, North Dakota
Current Conditions -  °F | °C
As of 4:54 PM on Saturday 25 Oct 2014 (Local Time) from KMOT Reporting Station
Clear Clear  
Wind Chill: 61°   Ceiling: Unl
Heat Index: 61°   Visibility: 10mi
Dew Point: 26°   Wind: 8mph
Humidity: 26%   Direction: 150°SSE
Pressure: 30.03"   Gusts: NA
Location:  48.09°N, 100.62°W
Report Text: KMOT 252154Z 15007KT 10SM CLR 16/M03 A3003 RMK AO2 SLP175 T01611033
Loading
Personal Weather Stations






























Interactive Weather Map
Tropical Storm Tracking
New forecast layout! Learn more

10-Day Weather Forecast

Advertisements
Track Severe Weather on mobile